ADDS METAR Data INFO
IDs: Format: Raw Decoded Include TAF

Data at: 0039 UTC 21 Jan 2018

METAR for:KLHQ (Lancaster/Fairfield, OH, US)
Text:KLHQ 202353Z AUTO 19005KT 10SM OVC028 06/M01 A3011 RMK AO2 SLP202 T00561006 10072 20056 53014
Temperature: 5.6°C ( 42°F)
Dewpoint: -0.6°C ( 31°F) [RH = 64%]
Pressure (altimeter):30.11 inches Hg (1019.7 mb) [Sea level pressure: 1020.2 mb]
Winds:from the S (190 degrees) at 6 MPH (5 knots; 2.6 m/s)
Visibility:10 or more sm (16+ km)
Ceiling:2800 feet AGL
Clouds: overcast cloud deck at 2800 feet AGL
QC Flag:automated observation with no human augmentation